sensor_id;sensor_type;location;lat;lon;timestamp;P1;durP1;ratioP1;P2;durP2;ratioP2
51485;SDS011;37565;51.352;6.412;2023-05-23T20:15:39;9.70;;;2.10;;
51485;SDS011;37565;51.352;6.412;2023-05-23T20:18:08;7.28;;;1.85;;
51485;SDS011;37565;51.352;6.412;2023-05-23T20:20:36;8.38;;;2.72;;
51485;SDS011;37565;51.352;6.412;2023-05-23T20:23:03;10.35;;;3.75;;
51485;SDS011;37565;51.352;6.412;2023-05-23T20:25:32;9.38;;;3.85;;
51485;SDS011;37565;51.352;6.412;2023-05-23T20:28:00;8.48;;;4.57;;
51485;SDS011;37565;51.352;6.412;2023-05-23T20:30:28;10.65;;;5.95;;
51485;SDS011;37565;51.352;6.412;2023-05-23T20:32:57;16.40;;;6.30;;
51485;SDS011;37565;51.352;6.412;2023-05-23T20:35:25;16.20;;;6.60;;
51485;SDS011;37565;51.352;6.412;2023-05-23T20:37:54;14.35;;;9.63;;
51485;SDS011;37565;51.352;6.412;2023-05-23T20:40:23;15.65;;;10.75;;
51485;SDS011;37565;51.352;6.412;2023-05-23T20:42:55;20.48;;;10.63;;
51485;SDS011;37565;51.352;6.412;2023-05-23T20:45:29;20.38;;;13.00;;
51485;SDS011;37565;51.352;6.412;2023-05-23T20:47:59;21.50;;;12.65;;
51485;SDS011;37565;51.352;6.412;2023-05-23T20:50:27;25.15;;;14.90;;
51485;SDS011;37565;51.352;6.412;2023-05-23T20:52:56;21.98;;;13.38;;
51485;SDS011;37565;51.352;6.412;2023-05-23T20:55:27;24.35;;;15.35;;
51485;SDS011;37565;51.352;6.412;2023-05-23T20:57:55;18.92;;;13.02;;
51485;SDS011;37565;51.352;6.412;2023-05-23T21:00:23;28.85;;;16.48;;
51485;SDS011;37565;51.352;6.412;2023-05-23T21:02:51;27.60;;;17.38;;
51485;SDS011;37565;51.352;6.412;2023-05-23T21:05:21;28.90;;;19.35;;
51485;SDS011;37565;51.352;6.412;2023-05-23T21:07:49;26.45;;;17.48;;
51485;SDS011;37565;51.352;6.412;2023-05-23T21:10:17;31.95;;;18.67;;
51485;SDS011;37565;51.352;6.412;2023-05-23T21:12:45;30.27;;;19.50;;
51485;SDS011;37565;51.352;6.412;2023-05-23T21:15:15;30.88;;;19.88;;
51485;SDS011;37565;51.352;6.412;2023-05-23T21:17:43;30.33;;;18.33;;
51485;SDS011;37565;51.352;6.412;2023-05-23T21:20:11;28.27;;;18.63;;
51485;SDS011;37565;51.352;6.412;2023-05-23T21:22:41;29.98;;;19.15;;
51485;SDS011;37565;51.352;6.412;2023-05-23T21:25:09;37.05;;;23.52;;
51485;SDS011;37565;51.352;6.412;2023-05-23T21:27:37;31.50;;;20.65;;
51485;SDS011;37565;51.352;6.412;2023-05-23T21:30:05;38.20;;;20.13;;
51485;SDS011;37565;51.352;6.412;2023-05-23T21:32:34;28.38;;;18.33;;
51485;SDS011;37565;51.352;6.412;2023-05-23T21:35:02;36.25;;;24.30;;
51485;SDS011;37565;51.352;6.412;2023-05-23T21:37:31;31.92;;;19.33;;
51485;SDS011;37565;51.352;6.412;2023-05-23T21:40:03;32.72;;;20.92;;
51485;SDS011;37565;51.352;6.412;2023-05-23T21:42:32;37.08;;;23.05;;
51485;SDS011;37565;51.352;6.412;2023-05-23T21:45:00;33.33;;;21.85;;
51485;SDS011;37565;51.352;6.412;2023-05-23T21:47:28;34.38;;;21.33;;
51485;SDS011;37565;51.352;6.412;2023-05-23T21:49:56;33.58;;;20.00;;
51485;SDS011;37565;51.352;6.412;2023-05-23T21:52:24;36.83;;;22.70;;
51485;SDS011;37565;51.352;6.412;2023-05-23T21:54:51;34.03;;;21.80;;
51485;SDS011;37565;51.352;6.412;2023-05-23T21:57:21;34.35;;;21.75;;
51485;SDS011;37565;51.352;6.412;2023-05-23T21:59:49;37.00;;;22.92;;
51485;SDS011;37565;51.352;6.412;2023-05-23T22:02:17;39.40;;;24.13;;
51485;SDS011;37565;51.352;6.412;2023-05-23T22:04:44;39.67;;;23.48;;
51485;SDS011;37565;51.352;6.412;2023-05-23T22:07:12;36.40;;;24.45;;
51485;SDS011;37565;51.352;6.412;2023-05-23T22:09:41;41.40;;;22.63;;
51485;SDS011;37565;51.352;6.412;2023-05-23T22:12:09;38.53;;;24.08;;
51485;SDS011;37565;51.352;6.412;2023-05-23T22:14:38;34.13;;;22.65;;
51485;SDS011;37565;51.352;6.412;2023-05-23T22:17:06;35.15;;;24.42;;
51485;SDS011;37565;51.352;6.412;2023-05-23T22:19:35;39.47;;;23.67;;
51485;SDS011;37565;51.352;6.412;2023-05-23T22:22:03;45.20;;;25.25;;
51485;SDS011;37565;51.352;6.412;2023-05-23T22:24:33;37.28;;;24.23;;
51485;SDS011;37565;51.352;6.412;2023-05-23T22:27:00;42.10;;;24.73;;
51485;SDS011;37565;51.352;6.412;2023-05-23T22:29:29;42.03;;;26.40;;
51485;SDS011;37565;51.352;6.412;2023-05-23T22:31:58;40.30;;;24.27;;
51485;SDS011;37565;51.352;6.412;2023-05-23T22:34:26;44.00;;;27.73;;
51485;SDS011;37565;51.352;6.412;2023-05-23T22:36:55;37.45;;;25.23;;
51485;SDS011;37565;51.352;6.412;2023-05-23T22:39:25;40.17;;;25.08;;
51485;SDS011;37565;51.352;6.412;2023-05-23T22:41:53;35.10;;;25.17;;
51485;SDS011;37565;51.352;6.412;2023-05-23T22:44:21;44.45;;;27.75;;
51485;SDS011;37565;51.352;6.412;2023-05-23T22:46:49;40.55;;;26.15;;
51485;SDS011;37565;51.352;6.412;2023-05-23T22:49:19;37.38;;;26.10;;
51485;SDS011;37565;51.352;6.412;2023-05-23T22:51:47;38.95;;;25.83;;
51485;SDS011;37565;51.352;6.412;2023-05-23T22:54:15;43.95;;;27.58;;
51485;SDS011;37565;51.352;6.412;2023-05-23T22:56:43;40.38;;;26.05;;
51485;SDS011;37565;51.352;6.412;2023-05-23T22:59:11;41.80;;;26.42;;
